Time;durP1;ratioP1;P1;durP2;ratioP2;P2;SDS_P1;SDS_P2;PMS_P1;PMS_P2;Temp;Humidity;BMP_temperature;BMP_pressure;BME280_temperature;BME280_humidity;BME280_pressure;Samples;Min_cycle;Max_cycle;Signal;HPM_P1;HPM_P2
2022/12/15 00:39:14;;;;;;;103.12;60.90;;;;;;;-2.45;90.28;99040.48;2758935;86;21011;-61
2022/12/15 00:43:15;;;;;;;89.77;51.33;;;;;;;-2.53;90.16;99034.34;2756590;85;21056;-65
2022/12/15 00:47:16;;;;;;;85.57;50.58;;;;;;;-2.51;90.60;99046.83;2757978;86;21259;-63
2022/12/15 00:51:19;;;;;;;94.40;55.67;;;;;;;-2.61;90.84;99045.56;2762832;84;21050;-59
2022/12/15 01:21:31;;;;;;;107.07;71.00;;;;;;;-2.17;90.61;99056.89;2737706;86;30745;-60
2022/12/15 01:25:35;;;;;;;111.83;64.37;;;;;;;-1.96;89.54;99052.86;2763097;86;21046;-64
2022/12/15 01:29:37;;;;;;;92.45;62.73;;;;;;;-1.84;88.96;99060.97;2761893;84;20979;-62
2022/12/15 01:33:41;;;;;;;108.90;59.53;;;;;;;-1.79;88.34;99068.09;2724015;86;21107;-62
2022/12/15 01:37:44;;;;;;;98.35;61.70;;;;;;;-1.77;87.98;99075.38;2738455;86;21023;-62
2022/12/15 01:41:46;;;;;;;102.02;62.27;;;;;;;-1.69;88.26;99074.55;2728904;86;21024;-64
2022/12/15 01:46:07;;;;;;;95.75;51.60;;;;;;;-1.77;87.76;99059.73;2719085;87;21083;-60
2022/12/15 01:50:14;;;;;;;87.85;49.60;;;;;;;-1.69;87.67;99082.81;2706707;85;21047;-60
2022/12/15 01:54:22;;;;;;;;;;;;;;;-1.70;88.01;99087.20;2713835;87;21008;-60
2022/12/15 01:58:24;;;;;;;78.28;44.27;;;;;;;-2.00;88.56;99059.12;2733754;86;20088;-60
2022/12/15 02:02:28;;;;;;;89.87;48.00;;;;;;;-2.00;88.56;99059.12;2732351;86;21087;-59
2022/12/15 02:06:30;;;;;;;76.62;50.40;;;;;;;-1.88;89.06;99087.20;2714815;86;21032;-64
2022/12/15 02:11:04;;;;;;;78.52;46.40;;;;;;;-1.88;89.06;99087.20;2733640;86;21115;-60
2022/12/15 02:15:25;;;;;;;76.00;47.10;;;;;;;-1.57;89.33;99095.24;2730390;87;21053;-61
2022/12/15 02:19:52;;;;;;;82.42;45.40;;;;;;;-1.57;89.33;99095.24;2714456;87;21056;-60
2022/12/15 02:24:21;;;;;;;96.40;44.83;;;;;;;-1.44;88.27;99115.88;2703975;84;21039;-63
2022/12/15 02:28:53;;;;;;;78.52;49.58;;;;;;;-1.29;87.91;99115.98;2732355;86;21064;-60
2022/12/15 02:33:23;;;;;;;84.10;47.40;;;;;;;-1.22;87.08;99117.83;2729780;87;21075;-62
2022/12/15 02:37:35;;;;;;;74.37;43.13;;;;;;;-1.13;87.21;99116.06;2730206;86;21031;-62
2022/12/15 02:41:42;;;;;;;78.57;47.20;;;;;;;-1.06;86.78;99129.16;2733979;86;21095;-61
2022/12/15 02:46:15;;;;;;;78.47;45.17;;;;;;;-1.03;86.69;99144.66;2734186;87;21082;-61
2022/12/15 02:50:51;;;;;;;77.72;45.80;;;;;;;-1.03;86.42;99152.48;2722573;87;21027;-62
2022/12/15 02:55:34;;;;;;;69.50;41.53;;;;;;;-0.97;86.65;99152.63;2704160;88;21067;-60
2022/12/15 03:00:02;;;;;;;67.78;40.65;;;;;;;-0.92;87.04;99145.39;2556988;92;21123;-59
2022/12/15 03:04:07;;;;;;;70.35;39.18;;;;;;;-0.80;86.92;99153.03;2582050;91;21059;-61
2022/12/15 03:08:19;;;;;;;78.35;43.38;;;;;;;-0.75;86.37;99152.36;2522292;92;21121;-61
2022/12/15 03:12:21;;;;;;;79.55;40.33;;;;;;;-0.69;86.00;99162.08;2540363;91;21060;-62
2022/12/15 03:16:29;;;;;;;60.88;36.80;;;;;;;-0.65;85.44;99168.38;2487873;95;21101;-61
2022/12/15 03:20:31;;;;;;;61.15;35.40;;;;;;;-0.59;85.62;99180.24;2525453;94;21075;-63
2022/12/15 03:24:34;;;;;;;64.37;40.12;;;;;;;-0.59;84.97;99184.16;2535191;92;21085;-64
2022/12/15 03:28:35;;;;;;;69.60;40.92;;;;;;;-0.59;85.15;99182.85;2582058;91;21106;-64
2022/12/15 03:32:36;;;;;;;62.88;37.48;;;;;;;-0.56;85.53;99191.86;2610862;90;21186;-63
2022/12/15 03:36:37;;;;;;;68.57;41.98;;;;;;;-0.53;85.42;99196.91;2721923;86;21282;-63
2022/12/15 03:40:39;;;;;;;64.77;39.53;;;;;;;-0.47;85.65;99185.30;2721822;86;21075;-60
2022/12/15 03:44:40;;;;;;;63.17;38.45;;;;;;;-0.39;85.68;99191.39;2688971;86;21028;-62
2022/12/15 03:48:46;;;;;;;65.87;39.70;;;;;;;-0.31;85.69;99193.97;2753847;86;21039;-61
2022/12/15 03:52:59;;;;;;;62.45;38.90;;;;;;;-0.28;85.04;99199.98;2740001;86;21071;-62
2022/12/15 03:57:01;;;;;;;66.10;37.90;;;;;;;-0.26;85.19;99209.89;2729572;86;21081;-62
2022/12/15 04:01:29;;;;;;;60.43;34.78;;;;;;;-0.28;85.14;99217.80;2720348;86;21023;-60
2022/12/15 04:05:33;;;;;;;64.00;39.58;;;;;;;-0.24;85.22;99218.48;2731668;86;21027;-62
2022/12/15 04:09:36;;;;;;;59.70;38.30;;;;;;;-0.22;84.95;99223.99;2746084;86;21016;-63
2022/12/15 04:13:37;;;;;;;70.55;37.08;;;;;;;-0.20;85.18;99232.59;2719852;86;21003;-60
2022/12/15 04:17:39;;;;;;;60.73;41.68;;;;;;;-0.22;84.83;99238.84;2722539;86;21050;-62
2022/12/15 04:21:40;;;;;;;66.97;35.85;;;;;;;-0.16;84.91;99244.59;2742854;86;21021;-61
2022/12/15 05:35:37;;;;;;;61.08;39.58;;;;;;;-0.11;86.19;99313.59;2739418;85;21055;-63
2022/12/15 05:39:41;;;;;;;72.25;39.95;;;;;;;-0.15;85.70;99325.16;2754739;86;21019;-62
2022/12/15 05:43:43;;;;;;;65.70;39.70;;;;;;;-0.21;86.22;99334.16;2692260;86;21046;-65
2022/12/15 05:47:51;;;;;;;64.35;37.40;;;;;;;-0.19;86.58;99345.85;2740421;86;21015;-62
2022/12/15 05:52:05;;;;;;;61.08;37.73;;;;;;;-0.17;86.33;99346.16;2745632;85;21015;-66
2022/12/15 05:56:11;;;;;;;55.70;33.63;;;;;;;-0.05;86.09;99364.73;2754219;86;21001;-65
2022/12/15 06:00:14;;;;;;;58.02;37.42;;;;;;;0.01;86.13;99363.12;2754595;86;21055;-65
2022/12/15 06:04:18;;;;;;;53.15;33.75;;;;;;;0.00;85.58;99369.27;2754463;85;20977;-64
2022/12/15 06:08:52;;;;;;;61.98;35.35;;;;;;;-0.09;84.93;99375.83;2731638;86;21081;-63
2022/12/15 06:12:54;;;;;;;46.35;30.60;;;;;;;-0.07;85.49;99392.73;2760433;86;21004;-65
2022/12/15 06:16:55;;;;;;;40.80;26.75;;;;;;;-0.22;84.50;99400.91;2764168;86;21376;-66
2022/12/15 06:21:11;;;;;;;32.23;22.40;;;;;;;-0.40;82.53;99402.67;2752989;86;21008;-63
2022/12/15 06:25:13;;;;;;;43.02;23.52;;;;;;;-0.67;82.52;99411.84;2754345;86;21019;-62
2022/12/15 06:29:14;;;;;;;39.00;25.75;;;;;;;-0.88;83.64;99425.47;2754294;86;21080;-63
2022/12/15 06:33:23;;;;;;;28.50;17.90;;;;;;;-0.83;83.24;99430.00;2751132;86;21007;-66
2022/12/15 06:37:25;;;;;;;34.38;19.55;;;;;;;-0.92;82.57;99447.44;2736879;87;21130;-66
2022/12/15 06:41:29;;;;;;;36.65;20.20;;;;;;;-1.11;82.04;99441.78;2706061;87;21019;-62
2022/12/15 06:45:31;;;;;;;37.83;20.57;;;;;;;-1.30;83.67;99444.39;2747303;86;21109;-66
2022/12/15 06:49:32;;;;;;;36.70;22.05;;;;;;;-1.28;83.45;99452.98;2765032;85;21052;-65
2022/12/15 06:53:37;;;;;;;39.50;21.70;;;;;;;-1.34;83.70;99453.28;2736223;87;21063;-63
2022/12/15 06:57:39;;;;;;;36.90;21.37;;;;;;;-1.41;83.90;99459.23;2740334;87;21043;-63
2022/12/15 07:01:40;;;;;;;27.70;13.50;;;;;;;-1.37;83.67;99466.03;2741391;87;21047;-63
2022/12/15 07:05:43;;;;;;;37.08;22.62;;;;;;;-1.48;82.58;99463.05;2713916;87;21067;-62
2022/12/15 07:09:45;;;;;;;30.00;19.70;;;;;;;-1.37;83.68;99477.77;2739467;87;21090;-62
2022/12/15 07:14:08;;;;;;;38.05;22.52;;;;;;;-1.44;84.89;99459.37;2741518;86;21060;-63
2022/12/15 07:18:09;;;;;;;33.42;19.00;;;;;;;-1.29;84.19;99466.95;2741391;87;21090;-62
2022/12/15 07:22:10;;;;;;;41.42;23.15;;;;;;;-1.16;82.87;99482.92;2739990;86;21059;-65
2022/12/15 07:26:16;;;;;;;21.48;15.00;;;;;;;-1.16;83.98;99488.97;2741577;87;21038;-64
2022/12/15 07:30:18;;;;;;;33.03;19.43;;;;;;;-1.21;80.82;99492.70;2714845;86;21091;-64
2022/12/15 07:34:19;;;;;;;38.83;23.75;;;;;;;-1.05;82.48;99507.22;2736783;87;21093;-64
2022/12/15 07:38:21;;;;;;;31.15;19.60;;;;;;;-1.05;82.48;99507.22;2733045;87;21016;-63
2022/12/15 07:42:23;;;;;;;35.25;21.10;;;;;;;-0.94;82.24;99511.46;2733606;86;21056;-64
2022/12/15 07:46:25;;;;;;;37.35;21.62;;;;;;;-0.89;82.18;99509.95;2731696;87;21040;-63
2022/12/15 07:50:27;;;;;;;33.00;20.37;;;;;;;-0.80;81.98;99512.12;2732003;84;21020;-65
2022/12/15 07:54:30;;;;;;;34.43;18.07;;;;;;;-0.78;81.69;99522.50;2715953;87;21022;-63
2022/12/15 07:58:32;;;;;;;32.50;21.02;;;;;;;-0.80;80.61;99517.81;2733813;86;21039;-66
2022/12/15 08:02:54;;;;;;;23.65;16.12;;;;;;;-0.75;81.18;99523.66;2735889;87;20946;-64
2022/12/15 08:06:57;;;;;;;29.77;18.73;;;;;;;-0.74;80.27;99539.27;2688685;87;21044;-64
2022/12/15 08:10:58;;;;;;;34.45;19.07;;;;;;;-0.63;80.88;99533.98;2730442;85;20983;-62
2022/12/15 08:15:01;;;;;;;36.20;18.30;;;;;;;-0.68;80.61;99533.36;2732450;86;21048;-64
2022/12/15 08:19:04;;;;;;;37.85;22.15;;;;;;;-0.78;79.88;99544.70;2729144;87;21079;-62
2022/12/15 08:23:05;;;;;;;31.05;20.70;;;;;;;-0.75;80.76;99551.08;2731706;87;21036;-65
2022/12/15 08:27:07;;;;;;;35.05;19.42;;;;;;;-0.77;80.52;99555.09;2731704;87;20992;-65
2022/12/15 08:31:16;;;;;;;37.98;18.57;;;;;;;-0.72;80.61;99558.33;2732364;87;21012;-63
2022/12/15 08:35:18;;;;;;;40.92;23.73;;;;;;;-0.73;80.78;99553.16;2738905;86;21078;-62
2022/12/15 08:39:19;;;;;;;30.95;18.42;;;;;;;-0.63;80.49;99558.80;2745851;86;21093;-64
2022/12/15 08:43:24;;;;;;;36.20;20.82;;;;;;;-0.51;80.22;99561.29;2719404;86;21134;-65
2022/12/15 08:47:26;;;;;;;34.00;20.15;;;;;;;-0.38;80.11;99575.47;2720599;86;21055;-64
2022/12/15 08:51:30;;;;;;;35.48;21.75;;;;;;;-0.27;79.94;99576.26;2745772;86;20991;-63
2022/12/15 08:55:33;;;;;;;29.02;21.20;;;;;;;-0.18;79.80;99584.98;2745023;86;21036;-62
2022/12/15 08:59:34;;;;;;;36.00;22.45;;;;;;;-0.09;79.27;99588.05;2740114;86;21055;-64
2022/12/15 09:03:36;;;;;;;33.10;21.05;;;;;;;-0.08;78.52;99587.13;2739614;86;21007;-62
2022/12/15 09:07:38;;;;;;;33.75;21.97;;;;;;;-0.05;78.40;99596.98;2743962;86;21063;-63
2022/12/15 09:11:39;;;;;;;35.15;23.12;;;;;;;-0.11;77.60;99601.19;2745130;86;21047;-62
2022/12/15 09:15:42;;;;;;;34.92;23.25;;;;;;;-0.16;77.72;99610.58;2736610;87;21084;-61
2022/12/15 09:19:43;;;;;;;33.75;24.02;;;;;;;-0.16;77.69;99615.81;2722100;86;21012;-63
2022/12/15 09:24:00;;;;;;;37.83;22.95;;;;;;;-0.17;77.72;99616.73;2744679;87;21064;-62
2022/12/15 09:28:02;;;;;;;34.80;22.15;;;;;;;-0.18;77.79;99614.19;2744301;86;21070;-64
2022/12/15 09:32:04;;;;;;;33.18;23.27;;;;;;;-0.18;77.69;99611.13;2653141;87;21015;-64
2022/12/15 09:36:34;;;;;;;35.73;22.85;;;;;;;-0.20;77.71;99610.32;2738009;85;21142;-62
2022/12/15 09:40:35;;;;;;;29.87;21.12;;;;;;;-0.19;77.35;99600.73;2713158;87;21031;-63
2022/12/15 09:44:37;;;;;;;36.95;24.57;;;;;;;-0.15;76.47;99605.74;2730619;86;21028;-63
2022/12/15 09:48:42;;;;;;;35.60;23.20;;;;;;;-0.13;76.79;99606.13;2733540;86;21657;-62
2022/12/15 09:52:51;;;;;;;37.20;22.00;;;;;;;-0.10;76.69;99612.51;2712754;84;21091;-63
2022/12/15 09:56:56;;;;;;;43.28;26.02;;;;;;;-0.11;76.59;99610.34;2732751;87;21092;-65
2022/12/15 10:01:26;;;;;;;37.88;23.85;;;;;;;-0.10;76.64;99613.81;2727429;87;21060;-62
2022/12/15 10:06:17;;;;;;;36.85;27.65;;;;;;;-0.11;76.73;99612.13;2733187;87;21098;-62
2022/12/15 10:10:54;;;;;;;37.67;22.82;;;;;;;-0.04;76.75;99623.97;2728732;87;21035;-63
2022/12/15 10:15:05;;;;;;;;;;;;;;;0.04;76.30;99619.23;2726574;87;21116;-62
2022/12/15 10:19:27;;;;;;;34.00;22.77;;;;;;;0.11;76.64;99615.38;2727081;87;20095;-62
2022/12/15 10:23:28;;;;;;;39.30;23.55;;;;;;;0.25;75.87;99618.61;2731984;87;21076;-64
2022/12/15 10:27:53;;;;;;;35.78;25.48;;;;;;;0.34;75.70;99623.02;2727882;87;21324;-63
2022/12/15 10:32:13;;;;;;;38.90;23.30;;;;;;;0.36;75.33;99621.17;2730673;87;21052;-63
2022/12/15 10:36:16;;;;;;;47.20;27.75;;;;;;;0.28;74.56;99614.53;2739637;86;21032;-64
2022/12/15 10:40:21;;;;;;;41.83;26.50;;;;;;;0.45;75.34;99622.48;2745108;86;21067;-61
2022/12/15 10:44:24;;;;;;;40.40;24.23;;;;;;;0.56;74.99;99629.30;2733139;87;21015;-64
2022/12/15 10:48:26;;;;;;;42.80;25.95;;;;;;;0.56;74.62;99637.16;2711241;87;21024;-63
2022/12/15 10:52:37;;;;;;;42.40;24.57;;;;;;;0.54;74.87;99639.01;2743919;86;21028;-65
2022/12/15 10:56:52;;;;;;;39.38;23.18;;;;;;;0.60;74.75;99642.64;2745500;86;21048;-63
2022/12/15 11:01:08;;;;;;;39.42;22.50;;;;;;;0.67;74.37;99647.94;2744190;86;21000;-64
2022/12/15 11:05:16;;;;;;;45.05;24.85;;;;;;;0.67;74.71;99656.24;2744993;86;21122;-63
2022/12/15 11:09:43;;;;;;;36.90;22.02;;;;;;;0.75;74.16;99659.33;2744492;86;21016;-63
2022/12/15 11:14:04;;;;;;;32.03;21.23;;;;;;;0.82;74.02;99665.11;2736835;86;21111;-62
2022/12/15 11:18:30;;;;;;;39.98;25.70;;;;;;;0.81;74.33;99669.97;2741727;86;21080;-64
2022/12/15 11:22:51;;;;;;;38.88;25.05;;;;;;;0.87;73.71;99665.71;2745956;85;21069;-63
2022/12/15 11:27:10;;;;;;;30.40;25.32;;;;;;;0.88;73.50;99672.64;2744786;86;21119;-64
2022/12/15 11:31:39;;;;;;;38.53;23.22;;;;;;;0.85;72.72;99666.25;2700259;87;21032;-63
2022/12/15 11:36:14;;;;;;;36.63;23.83;;;;;;;0.94;73.21;99663.63;2733027;86;21036;-63
2022/12/15 11:40:43;;;;;;;33.00;22.30;;;;;;;0.98;72.89;99667.77;2712963;87;21083;-63
2022/12/15 11:45:12;;;;;;;26.15;20.57;;;;;;;1.14;72.67;99681.77;2690051;87;21019;-63
2022/12/15 11:49:34;;;;;;;28.75;20.12;;;;;;;1.23;71.46;99680.44;2693056;87;21032;-63
2022/12/15 11:54:00;;;;;;;34.95;21.85;;;;;;;1.23;70.71;99683.06;2705769;87;21093;-63
2022/12/15 11:58:35;;;;;;;30.85;19.57;;;;;;;1.04;69.34;99685.78;2733878;87;21046;-64
2022/12/15 12:03:15;;;;;;;30.25;18.82;;;;;;;0.95;70.57;99686.27;2752708;86;21065;-65
2022/12/15 12:07:28;;;;;;;36.50;19.60;;;;;;;0.91;70.79;99685.57;2751430;86;21020;-63
2022/12/15 12:11:41;;;;;;;29.27;19.80;;;;;;;0.87;70.44;99684.04;2750694;86;21036;-63
2022/12/15 12:15:48;;;;;;;30.20;19.67;;;;;;;0.91;71.33;99680.33;2752035;86;21125;-62
2022/12/15 12:20:09;;;;;;;34.33;20.37;;;;;;;0.94;70.31;99684.58;2625705;90;21131;-63
2022/12/15 12:24:36;;;;;;;31.80;19.00;;;;;;;0.97;70.19;99682.63;2604209;90;21066;-65
2022/12/15 12:29:15;;;;;;;35.23;20.08;;;;;;;0.95;69.96;99677.93;2604722;91;21064;-63
2022/12/15 12:33:36;;;;;;;26.93;18.27;;;;;;;0.73;69.48;99676.89;2626484;90;21078;-62
2022/12/15 12:37:43;;;;;;;32.25;19.92;;;;;;;0.67;69.18;99663.64;2596371;90;21000;-62
2022/12/15 12:42:06;;;;;;;34.78;21.85;;;;;;;0.55;69.75;99664.25;2588806;91;21059;-63
2022/12/15 12:46:24;;;;;;;34.78;23.07;;;;;;;0.38;69.02;99667.73;2577810;92;21086;-62
2022/12/15 12:50:29;;;;;;;36.85;22.82;;;;;;;0.37;70.57;99676.02;2577772;92;21073;-63
2022/12/15 12:54:39;;;;;;;47.00;24.37;;;;;;;0.35;70.21;99680.48;2578970;89;21129;-63
2022/12/15 12:58:43;;;;;;;40.83;23.92;;;;;;;0.24;70.21;99674.95;2724684;86;21871;-63
2022/12/15 13:03:19;;;;;;;40.30;25.62;;;;;;;0.04;70.17;99676.77;2717841;86;21056;-61
2022/12/15 13:07:39;;;;;;;36.33;21.83;;;;;;;0.03;70.79;99680.30;2715333;86;21044;-62
2022/12/15 13:11:52;;;;;;;39.30;19.27;;;;;;;-0.10;72.24;99683.10;2738372;85;21015;-61
2022/12/15 13:16:11;;;;;;;38.48;25.60;;;;;;;-0.15;73.24;99689.41;2722373;86;21067;-62
2022/12/15 13:20:37;;;;;;;35.25;22.62;;;;;;;-0.09;72.69;99682.18;2699259;86;21070;-63
2022/12/15 13:24:47;;;;;;;40.20;23.40;;;;;;;-0.19;73.47;99670.86;2711697;86;21024;-63
2022/12/15 13:28:50;;;;;;;37.50;23.00;;;;;;;-0.37;74.53;99679.56;2679217;88;21063;-64
2022/12/15 13:33:16;;;;;;;42.90;26.05;;;;;;;-0.34;75.04;99674.19;2705456;88;21612;-64
2022/12/15 13:37:52;;;;;;;37.28;21.80;;;;;;;-0.32;75.37;99676.27;2733450;86;21008;-63
2022/12/15 13:42:05;;;;;;;41.40;23.67;;;;;;;-0.18;74.56;99680.84;2746026;85;21086;-62
2022/12/15 13:46:18;;;;;;;40.60;21.52;;;;;;;-0.01;73.96;99686.13;2744313;86;21048;-63
2022/12/15 13:50:47;;;;;;;42.88;23.80;;;;;;;0.09;72.42;99693.08;2744793;87;21047;-63
2022/12/15 13:54:57;;;;;;;41.13;25.80;;;;;;;0.16;72.21;99690.16;2745042;86;21075;-62
2022/12/15 13:59:04;;;;;;;40.03;26.27;;;;;;;0.06;71.89;99685.83;2719211;87;21691;-63
2022/12/15 14:03:11;;;;;;;60.95;37.75;;;;;;;0.09;72.04;99685.23;2745718;86;21045;-63
2022/12/15 14:07:13;;;;;;;62.98;32.78;;;;;;;0.06;71.64;99687.99;2733549;86;22467;-63
2022/12/15 14:11:24;;;;;;;38.08;24.50;;;;;;;0.12;71.71;99699.45;2746102;86;21066;-67
2022/12/15 14:15:31;;;;;;;37.55;23.73;;;;;;;0.22;71.89;99708.19;2734168;86;21024;-59
2022/12/15 14:19:40;;;;;;;33.10;20.82;;;;;;;0.27;71.01;99711.42;2726609;86;21008;-62
2022/12/15 14:23:49;;;;;;;36.50;25.15;;;;;;;0.24;71.09;99724.66;2733230;86;21003;-60
2022/12/15 14:27:51;;;;;;;36.73;25.00;;;;;;;0.28;70.89;99730.12;2744619;86;21067;-62
2022/12/15 14:31:56;;;;;;;41.75;23.52;;;;;;;0.33;70.74;99733.83;2740647;86;21093;-63
2022/12/15 14:36:00;;;;;;;43.68;26.02;;;;;;;0.34;70.74;99741.59;2744662;86;21119;-63
2022/12/15 14:40:02;;;;;;;45.20;26.90;;;;;;;0.36;70.62;99750.21;2736005;86;21090;-62
2022/12/15 14:44:21;;;;;;;38.78;27.48;;;;;;;0.35;70.25;99762.08;2728002;86;21054;-62
2022/12/15 14:48:39;;;;;;;67.27;33.70;;;;;;;0.30;69.93;99749.20;2708910;86;21039;-62
2022/12/15 14:52:43;;;;;;;128.95;74.15;;;;;;;0.25;69.61;99760.36;2743742;86;21052;-62
2022/12/15 14:56:51;;;;;;;127.75;73.67;;;;;;;0.07;69.59;99772.07;2725727;86;21075;-62
2022/12/15 15:00:54;;;;;;;118.22;68.17;;;;;;;-0.15;69.94;99780.91;2744909;86;21604;-60
2022/12/15 15:05:03;;;;;;;130.95;88.12;;;;;;;-0.25;70.48;99780.92;2744211;86;21053;-62
2022/12/15 15:09:28;;;;;;;115.30;66.80;;;;;;;-0.26;70.69;99787.07;2735460;86;21090;-66
2022/12/15 15:13:38;;;;;;;139.47;88.17;;;;;;;-0.45;70.99;99791.80;2735222;86;21537;-66
2022/12/15 15:17:53;;;;;;;140.65;92.42;;;;;;;-0.58;71.04;99788.05;2737381;86;21067;-65
2022/12/15 15:21:55;;;;;;;108.32;68.28;;;;;;;-0.61;71.03;99785.11;2743556;86;21028;-65
2022/12/15 15:31:04;;;;;;;112.42;68.10;;;;;;;-0.61;71.29;99774.66;2701679;87;21067;-64
2022/12/15 15:35:18;;;;;;;138.92;80.15;;;;;;;-0.66;70.99;99764.87;2724644;86;21023;-65
2022/12/15 15:39:20;;;;;;;135.63;76.33;;;;;;;-0.65;70.78;99757.87;2713776;86;21087;-63
2022/12/15 15:43:24;;;;;;;216.50;104.38;;;;;;;-0.66;70.47;99760.09;2728121;86;21388;-66
2022/12/15 15:47:28;;;;;;;155.18;71.35;;;;;;;-0.68;70.19;99767.15;2745916;86;21000;-64
2022/12/15 15:51:31;;;;;;;178.12;99.85;;;;;;;-0.84;70.87;99775.64;2746274;86;21040;-63
2022/12/15 15:55:34;;;;;;;188.85;100.25;;;;;;;-0.94;71.59;99773.05;2719138;86;21023;-66
2022/12/15 15:59:40;;;;;;;464.63;257.62;;;;;;;-0.97;71.64;99769.27;2746140;86;21055;-64
2022/12/15 16:03:39;;;;;;;264.23;165.60;;;;;;;-1.15;72.09;99763.90;2744913;86;21051;-64
2022/12/15 16:07:43;;;;;;;107.52;56.63;;;;;;;-1.24;72.33;99762.52;2739328;86;21062;-64
2022/12/15 16:11:46;;;;;;;174.75;95.10;;;;;;;-1.35;72.55;99751.22;2726726;86;20975;-64
2022/12/15 16:15:48;;;;;;;83.78;48.15;;;;;;;-1.50;72.84;99750.53;2715997;86;21040;-64
2022/12/15 16:19:50;;;;;;;123.70;64.03;;;;;;;-1.72;72.83;99752.23;2745986;86;21071;-64
2022/12/15 16:23:53;;;;;;;158.45;86.35;;;;;;;-1.85;73.54;99744.52;2675591;86;21398;-66
2022/12/15 16:27:54;;;;;;;148.35;80.85;;;;;;;-1.85;73.94;99756.25;2678480;88;21066;-63
2022/12/15 16:31:56;;;;;;;128.47;68.35;;;;;;;-1.93;73.80;99757.84;2736793;86;20988;-63
2022/12/15 16:36:15;;;;;;;140.20;71.05;;;;;;;-2.30;75.55;99763.98;2605575;89;21015;-64
2022/12/15 16:40:22;;;;;;;138.62;70.90;;;;;;;-2.59;76.60;99756.79;2670240;89;21031;-64
2022/12/15 16:44:26;;;;;;;121.57;64.80;;;;;;;-2.82;77.08;99781.48;2680178;89;21031;-66
2022/12/15 16:48:27;;;;;;;99.47;50.98;;;;;;;-3.03;78.75;99788.66;2680202;89;21039;-63
2022/12/15 16:52:38;;;;;;;87.57;51.48;;;;;;;-3.28;79.64;99795.13;2678572;89;20983;-61
2022/12/15 16:56:41;;;;;;;103.32;54.33;;;;;;;-3.42;80.38;99799.47;2679571;89;20980;-62
2022/12/15 17:00:49;;;;;;;96.95;55.00;;;;;;;-3.59;81.84;99815.62;2680585;89;21074;-62
2022/12/15 17:04:51;;;;;;;119.85;58.95;;;;;;;-3.71;82.69;99817.28;2654677;87;21636;-65
2022/12/15 17:08:56;;;;;;;139.12;95.65;;;;;;;-3.70;82.73;99828.08;2685727;87;21136;-66
2022/12/15 17:13:23;;;;;;;179.93;91.82;;;;;;;-3.55;83.05;99834.55;2672855;87;20991;-63
2022/12/15 17:17:26;;;;;;;138.77;81.97;;;;;;;-3.44;82.42;99820.78;2582398;90;21118;-63
2022/12/15 17:21:34;;;;;;;135.97;73.10;;;;;;;-3.38;80.96;99806.73;2583457;92;21064;-65
2022/12/15 17:25:42;;;;;;;117.28;60.50;;;;;;;-3.36;80.53;99816.17;2581265;92;21092;-65
2022/12/15 17:30:14;;;;;;;111.45;59.63;;;;;;;-3.37;81.11;99811.88;2585354;92;21156;-61
2022/12/15 17:34:44;;;;;;;122.00;73.07;;;;;;;-3.57;82.80;99814.25;2582019;92;21130;-62
2022/12/15 17:39:13;;;;;;;116.20;61.28;;;;;;;-3.66;83.83;99831.85;2608414;89;21084;-62
2022/12/15 17:43:21;;;;;;;153.27;81.12;;;;;;;-3.69;84.70;99829.34;2614798;88;21096;-63
2022/12/15 17:47:30;;;;;;;149.85;83.25;;;;;;;-3.62;84.86;99834.75;2615283;90;21057;-63
2022/12/15 17:51:31;;;;;;;245.78;145.87;;;;;;;-3.51;84.54;99820.12;2651520;87;21025;-68
2022/12/15 17:55:34;;;;;;;165.22;87.45;;;;;;;-3.41;83.79;99817.25;2690549;87;21321;-66
2022/12/15 17:59:35;;;;;;;143.37;81.42;;;;;;;-3.41;83.70;99818.08;2670713;87;21130;-63
2022/12/15 18:03:46;;;;;;;135.22;74.67;;;;;;;-3.45;83.80;99809.52;2724379;87;21130;-64
2022/12/15 18:07:52;;;;;;;168.72;99.15;;;;;;;-3.62;85.17;99807.92;2656256;87;21048;-63
2022/12/15 18:11:57;;;;;;;158.55;92.15;;;;;;;-3.62;85.07;99812.66;2716128;87;21102;-66
2022/12/15 18:16:02;;;;;;;156.30;89.13;;;;;;;-3.75;85.75;99819.11;2701530;86;21043;-63
2022/12/15 18:20:06;;;;;;;276.32;150.68;;;;;;;-3.74;84.99;99816.91;2672875;89;21066;-69
2022/12/15 18:24:18;;;;;;;258.25;133.75;;;;;;;-3.86;85.33;99827.23;2724921;87;20994;-63
2022/12/15 18:28:25;;;;;;;147.13;77.97;;;;;;;-3.83;85.06;99831.07;2724486;86;21022;-67
2022/12/15 18:32:28;;;;;;;141.62;70.57;;;;;;;-3.72;84.32;99829.45;2702587;87;21008;-64
2022/12/15 18:41:03;;;;;;;102.22;57.48;;;;;;;-3.61;83.88;99819.55;2730027;87;21070;-64
2022/12/15 18:45:24;;;;;;;101.22;59.18;;;;;;;-3.46;84.05;99808.28;2731361;87;21020;-66
2022/12/15 18:49:25;;;;;;;112.32;66.87;;;;;;;-3.36;84.06;99813.57;2745271;86;20975;-62
2022/12/15 18:53:44;;;;;;;232.35;130.27;;;;;;;-3.26;83.79;99812.00;2718248;85;21537;-64
2022/12/15 18:57:49;;;;;;;308.75;170.10;;;;;;;-3.24;83.77;99811.05;2737205;86;21062;-63
2022/12/15 19:01:51;;;;;;;368.42;194.80;;;;;;;-3.22;83.67;99814.45;2738166;87;21101;-67
2022/12/15 19:06:09;;;;;;;351.50;172.98;;;;;;;-3.27;83.99;99815.03;2724279;86;21012;-63
2022/12/15 19:10:14;;;;;;;203.20;108.10;;;;;;;-3.30;84.21;99817.30;2739956;86;21090;-68
2022/12/15 19:14:42;;;;;;;114.40;68.20;;;;;;;-3.21;84.12;99817.45;2734947;87;21015;-66
2022/12/15 19:23:24;;;;;;;96.08;49.67;;;;;;;-3.11;83.42;99811.94;2738000;87;21035;-64
2022/12/15 19:27:26;;;;;;;108.30;63.78;;;;;;;-3.06;83.44;99800.48;2728712;87;20967;-63
2022/12/15 19:31:28;;;;;;;116.85;64.30;;;;;;;-2.98;83.53;99800.66;2702607;87;21052;-62
2022/12/15 19:35:49;;;;;;;119.95;62.62;;;;;;;-2.99;83.70;99798.97;2714917;87;21043;-63
2022/12/15 19:39:51;;;;;;;115.55;60.58;;;;;;;-2.93;83.65;99794.87;2726836;87;21046;-62
2022/12/15 19:43:53;;;;;;;105.87;63.10;;;;;;;-2.83;83.56;99800.15;2724781;86;21078;-64
2022/12/15 19:47:57;;;;;;;115.82;60.85;;;;;;;-2.76;83.33;99806.84;2724032;87;21008;-63
2022/12/15 19:51:59;;;;;;;136.68;83.50;;;;;;;-2.71;83.23;99807.16;2690076;87;21003;-63
2022/12/15 19:56:42;;;;;;;140.25;78.10;;;;;;;-2.68;83.32;99800.53;2733282;86;20987;-65
2022/12/15 20:00:44;;;;;;;131.47;70.03;;;;;;;-2.59;83.61;99794.55;2709967;87;21126;-64
2022/12/15 20:04:48;;;;;;;127.00;70.83;;;;;;;-2.49;83.33;99795.51;2731943;85;21051;-63
2022/12/15 20:08:58;;;;;;;129.15;71.10;;;;;;;-2.46;83.27;99791.05;2725858;86;21007;-63
2022/12/15 20:13:02;;;;;;;122.00;67.05;;;;;;;-2.40;83.26;99791.29;2726770;85;21071;-62
2022/12/15 20:17:03;;;;;;;141.35;78.42;;;;;;;-2.40;83.17;99783.47;2739691;86;21039;-62
2022/12/15 20:21:09;;;;;;;164.60;95.42;;;;;;;-2.42;83.14;99783.12;2731249;86;21074;-63
2022/12/15 20:25:37;;;;;;;180.03;99.47;;;;;;;-2.51;83.35;99773.44;2686584;88;21038;-65
2022/12/15 20:29:40;;;;;;;192.57;101.05;;;;;;;-2.49;83.66;99774.67;2708797;85;20995;-62
2022/12/15 20:33:43;;;;;;;186.70;101.90;;;;;;;-2.55;83.82;99774.91;2726266;85;21109;-66
2022/12/15 20:38:27;;;;;;;181.18;95.12;;;;;;;-2.52;84.07;99778.70;2727800;86;21067;-62
2022/12/15 20:42:30;;;;;;;152.50;86.45;;;;;;;-2.46;84.20;99783.23;2702594;87;21012;-64
2022/12/15 20:46:38;;;;;;;158.32;88.50;;;;;;;-2.39;84.19;99784.30;2729549;85;21126;-63
2022/12/15 20:50:47;;;;;;;136.03;83.03;;;;;;;-2.34;84.22;99788.45;2723852;86;21028;-64
2022/12/15 20:54:53;;;;;;;140.52;79.25;;;;;;;-2.30;84.02;99777.47;2723026;86;21067;-63
2022/12/15 20:58:57;;;;;;;118.05;73.00;;;;;;;-2.26;83.97;99776.88;2709370;87;21039;-65
2022/12/15 21:03:20;;;;;;;130.50;67.03;;;;;;;-2.21;83.81;99764.09;2731455;86;21048;-62
2022/12/15 21:07:22;;;;;;;122.60;68.60;;;;;;;-2.22;83.71;99746.76;2732432;87;21048;-68
2022/12/15 21:11:29;;;;;;;130.32;75.62;;;;;;;-2.22;83.71;99746.76;2715453;87;21016;-61
2022/12/15 21:15:30;;;;;;;136.37;77.65;;;;;;;-2.12;83.72;99754.24;2702351;86;21144;-62
2022/12/15 21:19:31;;;;;;;137.00;70.17;;;;;;;-2.12;83.99;99766.80;2744153;86;21019;-65
2022/12/15 21:23:48;;;;;;;146.87;80.35;;;;;;;-2.17;84.09;99761.76;2726466;86;21388;-64
2022/12/15 21:27:49;;;;;;;169.97;88.80;;;;;;;-2.12;84.27;99762.06;2717358;86;21028;-65
2022/12/15 21:31:51;;;;;;;151.78;86.10;;;;;;;-2.06;84.16;99761.82;2705028;87;21028;-64
2022/12/15 21:35:53;;;;;;;153.25;85.38;;;;;;;-2.02;84.05;99765.56;2717332;87;21075;-64